sensor_id;sensor_type;location;lat;lon;timestamp;pressure;altitude;pressure_sealevel;temperature;humidity
57606;BME280;43430;48.204;11.556;2022-11-15T00:01:16;96039.56;;;2.68;100.00
57606;BME280;43430;48.204;11.556;2022-11-15T00:03:42;96032.91;;;2.66;100.00
57606;BME280;43430;48.204;11.556;2022-11-15T00:06:08;96033.38;;;2.69;100.00
57606;BME280;43430;48.204;11.556;2022-11-15T00:08:34;96031.41;;;2.71;100.00
57606;BME280;43430;48.204;11.556;2022-11-15T00:11:01;96035.66;;;2.72;100.00
57606;BME280;43430;48.204;11.556;2022-11-15T00:13:27;96043.94;;;2.76;100.00
57606;BME280;43430;48.204;11.556;2022-11-15T00:15:57;96041.47;;;2.74;100.00
57606;BME280;43430;48.204;11.556;2022-11-15T00:18:23;96038.06;;;2.74;100.00
57606;BME280;43430;48.204;11.556;2022-11-15T00:20:48;96034.81;;;2.72;100.00
57606;BME280;43430;48.204;11.556;2022-11-15T00:23:14;96020.38;;;2.69;100.00
57606;BME280;43430;48.204;11.556;2022-11-15T00:25:39;96022.50;;;2.66;100.00
57606;BME280;43430;48.204;11.556;2022-11-15T00:28:05;96024.50;;;2.55;100.00
57606;BME280;43430;48.204;11.556;2022-11-15T00:30:30;96029.19;;;2.60;100.00
57606;BME280;43430;48.204;11.556;2022-11-15T00:32:56;96027.41;;;2.60;100.00
57606;BME280;43430;48.204;11.556;2022-11-15T00:35:21;96026.94;;;2.57;100.00
57606;BME280;43430;48.204;11.556;2022-11-15T00:37:47;96020.09;;;2.56;100.00
57606;BME280;43430;48.204;11.556;2022-11-15T00:40:13;96019.97;;;2.49;100.00
57606;BME280;43430;48.204;11.556;2022-11-15T00:42:39;96019.78;;;2.51;100.00
57606;BME280;43430;48.204;11.556;2022-11-15T00:45:04;96013.97;;;2.49;100.00
57606;BME280;43430;48.204;11.556;2022-11-15T00:47:30;96016.72;;;2.47;100.00
57606;BME280;43430;48.204;11.556;2022-11-15T00:49:55;96013.03;;;2.42;100.00
57606;BME280;43430;48.204;11.556;2022-11-15T00:52:21;96013.03;;;2.42;100.00
57606;BME280;43430;48.204;11.556;2022-11-15T00:54:46;96007.81;;;2.42;100.00
57606;BME280;43430;48.204;11.556;2022-11-15T00:57:11;96009.63;;;2.41;100.00
57606;BME280;43430;48.204;11.556;2022-11-15T00:59:37;96004.69;;;2.46;100.00
57606;BME280;43430;48.204;11.556;2022-11-15T01:02:02;95999.34;;;2.40;100.00
57606;BME280;43430;48.204;11.556;2022-11-15T01:04:27;96004.41;;;2.41;100.00
57606;BME280;43430;48.204;11.556;2022-11-15T01:06:53;95994.94;;;2.48;100.00
57606;BME280;43430;48.204;11.556;2022-11-15T01:09:19;95996.69;;;2.56;100.00
57606;BME280;43430;48.204;11.556;2022-11-15T01:11:44;95994.34;;;2.69;100.00
57606;BME280;43430;48.204;11.556;2022-11-15T01:14:10;95988.03;;;2.87;100.00
57606;BME280;43430;48.204;11.556;2022-11-15T01:16:35;95984.69;;;3.01;100.00
57606;BME280;43430;48.204;11.556;2022-11-15T01:19:00;95984.44;;;3.11;100.00
57606;BME280;43430;48.204;11.556;2022-11-15T01:21:26;95985.19;;;3.19;100.00
57606;BME280;43430;48.204;11.556;2022-11-15T01:23:55;95969.53;;;3.19;100.00
57606;BME280;43430;48.204;11.556;2022-11-15T01:26:22;95961.72;;;3.19;100.00
57606;BME280;43430;48.204;11.556;2022-11-15T01:28:48;95962.72;;;3.18;100.00
57606;BME280;43430;48.204;11.556;2022-11-15T01:31:18;95962.38;;;3.21;100.00
57606;BME280;43430;48.204;11.556;2022-11-15T01:33:44;95955.56;;;3.20;100.00
57606;BME280;43430;48.204;11.556;2022-11-15T01:36:15;95953.09;;;3.19;100.00
57606;BME280;43430;48.204;11.556;2022-11-15T01:38:41;95942.53;;;3.20;100.00
57606;BME280;43430;48.204;11.556;2022-11-15T01:41:15;95949.00;;;3.24;100.00
57606;BME280;43430;48.204;11.556;2022-11-15T01:43:41;95941.88;;;3.18;100.00
57606;BME280;43430;48.204;11.556;2022-11-15T01:48:43;95945.78;;;2.76;100.00
57606;BME280;43430;48.204;11.556;2022-11-15T01:51:11;95948.91;;;2.72;100.00
57606;BME280;43430;48.204;11.556;2022-11-15T01:53:40;95948.41;;;2.76;100.00
57606;BME280;43430;48.204;11.556;2022-11-15T01:56:09;95943.81;;;2.78;100.00
57606;BME280;43430;48.204;11.556;2022-11-15T01:58:36;95938.13;;;2.75;100.00
57606;BME280;43430;48.204;11.556;2022-11-15T02:01:03;95941.81;;;2.66;100.00
57606;BME280;43430;48.204;11.556;2022-11-15T02:03:59;95938.31;;;2.50;100.00
57606;BME280;43430;48.204;11.556;2022-11-15T02:06:27;95941.31;;;2.39;100.00
57606;BME280;43430;48.204;11.556;2022-11-15T02:08:52;95936.91;;;2.40;100.00
57606;BME280;43430;48.204;11.556;2022-11-15T02:11:18;95935.13;;;2.40;100.00
57606;BME280;43430;48.204;11.556;2022-11-15T02:13:44;95930.25;;;2.37;100.00
57606;BME280;43430;48.204;11.556;2022-11-15T02:16:37;95927.03;;;2.35;100.00
57606;BME280;43430;48.204;11.556;2022-11-15T02:19:32;95924.97;;;2.22;100.00
57606;BME280;43430;48.204;11.556;2022-11-15T02:22:37;95936.78;;;2.02;100.00
57606;BME280;43430;48.204;11.556;2022-11-15T02:28:08;95933.31;;;2.09;100.00
57606;BME280;43430;48.204;11.556;2022-11-15T02:30:44;95932.50;;;2.09;100.00
57606;BME280;43430;48.204;11.556;2022-11-15T02:36:02;95936.00;;;1.93;100.00
57606;BME280;43430;48.204;11.556;2022-11-15T02:38:40;95929.16;;;1.92;100.00
57606;BME280;43430;48.204;11.556;2022-11-15T02:41:52;95929.34;;;1.82;100.00
57606;BME280;43430;48.204;11.556;2022-11-15T02:44:32;95922.53;;;1.89;100.00
57606;BME280;43430;48.204;11.556;2022-11-15T02:47:04;95917.34;;;1.81;100.00
57606;BME280;43430;48.204;11.556;2022-11-15T02:52:16;95913.84;;;1.66;100.00
57606;BME280;43430;48.204;11.556;2022-11-15T02:54:42;95919.69;;;1.60;100.00
57606;BME280;43430;48.204;11.556;2022-11-15T02:57:16;95915.44;;;1.67;100.00
57606;BME280;43430;48.204;11.556;2022-11-15T03:02:18;95906.06;;;1.58;100.00
57606;BME280;43430;48.204;11.556;2022-11-15T03:10:22;95891.78;;;1.54;100.00
57606;BME280;43430;48.204;11.556;2022-11-15T03:13:02;95886.75;;;1.52;100.00
57606;BME280;43430;48.204;11.556;2022-11-15T03:15:38;95882.84;;;1.56;100.00
57606;BME280;43430;48.204;11.556;2022-11-15T03:18:12;95885.97;;;1.52;100.00
57606;BME280;43430;48.204;11.556;2022-11-15T03:20:42;95877.84;;;1.47;100.00
57606;BME280;43430;48.204;11.556;2022-11-15T03:23:09;95880.44;;;1.47;100.00
57606;BME280;43430;48.204;11.556;2022-11-15T03:25:37;95872.63;;;1.47;100.00
57606;BME280;43430;48.204;11.556;2022-11-15T03:28:05;95863.06;;;1.47;100.00
57606;BME280;43430;48.204;11.556;2022-11-15T03:30:34;95871.84;;;1.46;100.00
57606;BME280;43430;48.204;11.556;2022-11-15T03:33:02;95863.25;;;1.46;100.00
57606;BME280;43430;48.204;11.556;2022-11-15T03:35:33;95861.78;;;1.43;100.00
57606;BME280;43430;48.204;11.556;2022-11-15T03:38:15;95854.31;;;1.40;100.00
57606;BME280;43430;48.204;11.556;2022-11-15T03:40:45;95861.00;;;1.34;100.00
57606;BME280;43430;48.204;11.556;2022-11-15T03:45:54;95870.78;;;1.16;100.00
57606;BME280;43430;48.204;11.556;2022-11-15T03:48:26;95867.06;;;1.10;100.00
57606;BME280;43430;48.204;11.556;2022-11-15T03:50:54;95880.06;;;1.10;100.00
57606;BME280;43430;48.204;11.556;2022-11-15T03:53:20;95879.84;;;1.28;100.00
57606;BME280;43430;48.204;11.556;2022-11-15T03:55:45;95872.97;;;1.43;100.00
57606;BME280;43430;48.204;11.556;2022-11-15T03:58:10;95872.81;;;1.45;100.00
57606;BME280;43430;48.204;11.556;2022-11-15T04:00:36;95860.78;;;1.52;100.00
57606;BME280;43430;48.204;11.556;2022-11-15T04:03:01;95852.34;;;1.50;100.00
57606;BME280;43430;48.204;11.556;2022-11-15T04:05:26;95856.56;;;1.43;100.00
57606;BME280;43430;48.204;11.556;2022-11-15T04:07:52;95854.16;;;1.41;100.00
57606;BME280;43430;48.204;11.556;2022-11-15T04:10:17;95843.59;;;1.43;100.00
57606;BME280;43430;48.204;11.556;2022-11-15T04:12:44;95836.47;;;1.37;100.00
57606;BME280;43430;48.204;11.556;2022-11-15T04:15:18;95836.00;;;1.33;100.00
57606;BME280;43430;48.204;11.556;2022-11-15T04:17:50;95830.16;;;1.31;100.00
57606;BME280;43430;48.204;11.556;2022-11-15T04:23:06;95835.06;;;1.18;100.00
57606;BME280;43430;48.204;11.556;2022-11-15T04:25:53;95834.75;;;1.13;100.00
57606;BME280;43430;48.204;11.556;2022-11-15T04:28:19;95833.44;;;1.17;100.00
57606;BME280;43430;48.204;11.556;2022-11-15T04:30:45;95833.94;;;1.12;100.00
57606;BME280;43430;48.204;11.556;2022-11-15T04:33:10;95831.38;;;1.04;100.00
57606;BME280;43430;48.204;11.556;2022-11-15T04:35:36;95830.25;;;1.07;100.00
57606;BME280;43430;48.204;11.556;2022-11-15T04:38:04;95826.31;;;1.11;100.00
57606;BME280;43430;48.204;11.556;2022-11-15T04:40:30;95824.88;;;1.08;100.00
57606;BME280;43430;48.204;11.556;2022-11-15T04:42:56;95832.31;;;1.03;100.00
57606;BME280;43430;48.204;11.556;2022-11-15T04:45:21;95829.59;;;1.05;100.00
57606;BME280;43430;48.204;11.556;2022-11-15T04:47:47;95829.94;;;0.93;100.00
57606;BME280;43430;48.204;11.556;2022-11-15T04:50:14;95834.66;;;0.90;100.00
57606;BME280;43430;48.204;11.556;2022-11-15T04:52:48;95835.13;;;0.85;100.00
57606;BME280;43430;48.204;11.556;2022-11-15T04:55:14;95836.09;;;0.84;100.00
57606;BME280;43430;48.204;11.556;2022-11-15T04:57:40;95833.81;;;0.98;100.00
57606;BME280;43430;48.204;11.556;2022-11-15T05:00:08;95833.50;;;1.01;100.00
57606;BME280;43430;48.204;11.556;2022-11-15T05:02:33;95828.44;;;0.99;100.00
57606;BME280;43430;48.204;11.556;2022-11-15T05:05:17;95823.91;;;1.01;100.00
57606;BME280;43430;48.204;11.556;2022-11-15T05:07:42;95815.31;;;1.01;100.00
57606;BME280;43430;48.204;11.556;2022-11-15T05:10:08;95812.91;;;0.91;100.00
57606;BME280;43430;48.204;11.556;2022-11-15T05:12:34;95809.16;;;0.85;100.00
57606;BME280;43430;48.204;11.556;2022-11-15T05:14:59;95814.38;;;0.77;100.00
57606;BME280;43430;48.204;11.556;2022-11-15T05:17:24;95804.00;;;0.77;100.00
57606;BME280;43430;48.204;11.556;2022-11-15T05:19:50;95804.63;;;0.87;100.00
57606;BME280;43430;48.204;11.556;2022-11-15T05:22:17;95806.72;;;0.92;100.00
57606;BME280;43430;48.204;11.556;2022-11-15T05:24:42;95798.78;;;0.93;100.00
57606;BME280;43430;48.204;11.556;2022-11-15T05:27:08;95795.88;;;0.88;100.00
57606;BME280;43430;48.204;11.556;2022-11-15T05:29:33;95795.88;;;0.88;100.00
57606;BME280;43430;48.204;11.556;2022-11-15T05:31:59;95784.69;;;0.88;100.00
57606;BME280;43430;48.204;11.556;2022-11-15T05:34:24;95779.00;;;0.84;100.00
57606;BME280;43430;48.204;11.556;2022-11-15T05:36:50;95773.66;;;0.78;100.00
57606;BME280;43430;48.204;11.556;2022-11-15T05:39:16;95775.13;;;0.80;100.00
57606;BME280;43430;48.204;11.556;2022-11-15T05:41:46;95778.19;;;0.84;100.00
57606;BME280;43430;48.204;11.556;2022-11-15T05:44:15;95787.78;;;0.75;100.00
57606;BME280;43430;48.204;11.556;2022-11-15T05:46:43;95778.06;;;0.61;100.00
57606;BME280;43430;48.204;11.556;2022-11-15T05:49:11;95783.91;;;0.55;100.00
57606;BME280;43430;48.204;11.556;2022-11-15T05:51:39;95789.59;;;0.66;100.00
57606;BME280;43430;48.204;11.556;2022-11-15T05:54:05;95786.97;;;0.75;100.00
57606;BME280;43430;48.204;11.556;2022-11-15T05:56:30;95788.75;;;0.74;100.00
57606;BME280;43430;48.204;11.556;2022-11-15T05:58:57;95783.91;;;0.79;100.00
57606;BME280;43430;48.204;11.556;2022-11-15T06:01:23;95776.41;;;0.84;100.00
57606;BME280;43430;48.204;11.556;2022-11-15T06:03:50;95764.25;;;0.85;100.00
57606;BME280;43430;48.204;11.556;2022-11-15T06:06:15;95766.22;;;0.83;100.00
57606;BME280;43430;48.204;11.556;2022-11-15T06:08:40;95760.84;;;0.84;100.00
57606;BME280;43430;48.204;11.556;2022-11-15T06:11:07;95761.50;;;0.86;100.00
57606;BME280;43430;48.204;11.556;2022-11-15T06:13:33;95760.19;;;0.82;100.00
57606;BME280;43430;48.204;11.556;2022-11-15T06:15:59;95764.09;;;0.78;100.00
57606;BME280;43430;48.204;11.556;2022-11-15T06:18:25;95762.81;;;0.74;100.00
57606;BME280;43430;48.204;11.556;2022-11-15T06:20:51;95766.06;;;0.68;100.00
57606;BME280;43430;48.204;11.556;2022-11-15T06:23:16;95772.22;;;0.75;100.00
57606;BME280;43430;48.204;11.556;2022-11-15T06:25:42;95755.66;;;0.84;100.00
57606;BME280;43430;48.204;11.556;2022-11-15T06:28:07;95756.28;;;0.94;100.00
57606;BME280;43430;48.204;11.556;2022-11-15T06:30:33;95755.94;;;0.89;100.00
57606;BME280;43430;48.204;11.556;2022-11-15T06:33:03;95751.75;;;0.88;100.00
57606;BME280;43430;48.204;11.556;2022-11-15T06:35:29;95760.19;;;0.82;100.00
57606;BME280;43430;48.204;11.556;2022-11-15T06:37:55;95753.88;;;0.68;100.00
57606;BME280;43430;48.204;11.556;2022-11-15T06:40:21;95764.63;;;0.65;100.00
57606;BME280;43430;48.204;11.556;2022-11-15T06:42:46;95775.75;;;0.82;100.00
57606;BME280;43430;48.204;11.556;2022-11-15T06:45:12;95766.84;;;0.93;100.00
57606;BME280;43430;48.204;11.556;2022-11-15T06:47:45;95768.13;;;0.97;100.00
57606;BME280;43430;48.204;11.556;2022-11-15T06:50:11;95766.16;;;0.99;100.00
57606;BME280;43430;48.204;11.556;2022-11-15T06:52:36;95762.09;;;1.05;100.00
57606;BME280;43430;48.204;11.556;2022-11-15T06:55:02;95774.06;;;1.14;100.00
57606;BME280;43430;48.204;11.556;2022-11-15T06:57:27;95773.69;;;1.17;100.00
57606;BME280;43430;48.204;11.556;2022-11-15T06:59:52;95776.81;;;1.21;100.00
57606;BME280;43430;48.204;11.556;2022-11-15T07:02:18;95779.72;;;1.17;100.00
57606;BME280;43430;48.204;11.556;2022-11-15T07:04:43;95778.22;;;1.23;100.00
57606;BME280;43430;48.204;11.556;2022-11-15T07:07:09;95782.91;;;1.36;100.00
57606;BME280;43430;48.204;11.556;2022-11-15T07:09:34;95782.56;;;1.39;100.00
57606;BME280;43430;48.204;11.556;2022-11-15T07:12:00;95781.09;;;1.45;100.00
57606;BME280;43430;48.204;11.556;2022-11-15T07:14:25;95776.97;;;1.50;100.00
57606;BME280;43430;48.204;11.556;2022-11-15T07:16:50;95770.31;;;1.56;100.00
57606;BME280;43430;48.204;11.556;2022-11-15T07:19:16;95772.69;;;1.65;100.00
57606;BME280;43430;48.204;11.556;2022-11-15T07:21:41;95773.84;;;1.63;100.00
57606;BME280;43430;48.204;11.556;2022-11-15T07:24:06;95776.97;;;1.58;100.00
57606;BME280;43430;48.204;11.556;2022-11-15T07:26:32;95777.25;;;1.63;100.00
57606;BME280;43430;48.204;11.556;2022-11-15T07:28:57;95783.50;;;1.77;100.00
57606;BME280;43430;48.204;11.556;2022-11-15T07:31:22;95776.28;;;1.87;100.00
57606;BME280;43430;48.204;11.556;2022-11-15T07:33:48;95785.31;;;2.00;100.00
57606;BME280;43430;48.204;11.556;2022-11-15T07:36:13;95784.59;;;2.06;100.00
57606;BME280;43430;48.204;11.556;2022-11-15T07:38:39;95780.88;;;2.08;100.00
57606;BME280;43430;48.204;11.556;2022-11-15T07:41:05;95785.50;;;2.21;100.00
57606;BME280;43430;48.204;11.556;2022-11-15T07:43:31;95778.81;;;2.42;100.00
57606;BME280;43430;48.204;11.556;2022-11-15T07:46:03;95766.66;;;2.57;100.00
57606;BME280;43430;48.204;11.556;2022-11-15T07:48:29;95762.00;;;2.67;100.00
57606;BME280;43430;48.204;11.556;2022-11-15T07:50:55;95748.81;;;2.83;100.00
57606;BME280;43430;48.204;11.556;2022-11-15T07:53:20;95754.66;;;3.00;100.00
57606;BME280;43430;48.204;11.556;2022-11-15T07:55:45;95752.88;;;3.01;100.00
57606;BME280;43430;48.204;11.556;2022-11-15T07:58:11;95751.50;;;3.20;100.00
57606;BME280;43430;48.204;11.556;2022-11-15T08:00:37;95758.97;;;3.38;100.00
57606;BME280;43430;48.204;11.556;2022-11-15T08:03:05;95758.22;;;3.44;100.00
57606;BME280;43430;48.204;11.556;2022-11-15T08:05:31;95746.44;;;3.48;100.00
57606;BME280;43430;48.204;11.556;2022-11-15T08:07:57;95735.06;;;3.70;100.00
57606;BME280;43430;48.204;11.556;2022-11-15T08:10:23;95718.06;;;3.96;100.00
57606;BME280;43430;48.204;11.556;2022-11-15T08:12:56;95704.06;;;4.25;100.00
57606;BME280;43430;48.204;11.556;2022-11-15T08:15:22;95694.59;;;4.45;100.00
57606;BME280;43430;48.204;11.556;2022-11-15T08:17:53;95697.34;;;4.65;100.00
57606;BME280;43430;48.204;11.556;2022-11-15T08:20:18;95686.56;;;4.82;100.00
57606;BME280;43430;48.204;11.556;2022-11-15T08:22:44;95679.22;;;4.98;100.00
57606;BME280;43430;48.204;11.556;2022-11-15T08:25:10;95664.81;;;5.16;100.00
57606;BME280;43430;48.204;11.556;2022-11-15T08:27:35;95657.25;;;5.34;100.00
57606;BME280;43430;48.204;11.556;2022-11-15T08:30:00;95650.03;;;5.50;100.00
57606;BME280;43430;48.204;11.556;2022-11-15T08:32:26;95638.81;;;5.62;100.00
57606;BME280;43430;48.204;11.556;2022-11-15T08:34:51;95627.16;;;5.71;100.00
57606;BME280;43430;48.204;11.556;2022-11-15T08:37:17;95622.13;;;5.77;100.00
57606;BME280;43430;48.204;11.556;2022-11-15T08:39:42;95616.28;;;5.81;100.00
57606;BME280;43430;48.204;11.556;2022-11-15T08:42:07;95622.34;;;5.95;100.00
57606;BME280;43430;48.204;11.556;2022-11-15T08:44:33;95611.50;;;6.11;100.00
57606;BME280;43430;48.204;11.556;2022-11-15T08:46:58;95618.94;;;6.21;100.00
57606;BME280;43430;48.204;11.556;2022-11-15T08:49:23;95607.66;;;6.21;100.00
57606;BME280;43430;48.204;11.556;2022-11-15T08:51:49;95607.84;;;6.26;100.00
57606;BME280;43430;48.204;11.556;2022-11-15T08:54:14;95612.69;;;6.29;100.00
57606;BME280;43430;48.204;11.556;2022-11-15T08:56:41;95614.66;;;6.40;100.00
57606;BME280;43430;48.204;11.556;2022-11-15T08:59:06;95611.47;;;6.38;100.00
57606;BME280;43430;48.204;11.556;2022-11-15T09:01:32;95616.31;;;6.41;100.00
57606;BME280;43430;48.204;11.556;2022-11-15T09:03:57;95617.91;;;6.49;100.00
57606;BME280;43430;48.204;11.556;2022-11-15T09:06:23;95617.84;;;6.69;100.00
57606;BME280;43430;48.204;11.556;2022-11-15T09:08:48;95612.34;;;6.90;100.00
57606;BME280;43430;48.204;11.556;2022-11-15T09:11:14;95601.81;;;7.03;100.00
57606;BME280;43430;48.204;11.556;2022-11-15T09:13:41;95584.19;;;7.17;100.00
57606;BME280;43430;48.204;11.556;2022-11-15T09:16:07;95586.13;;;7.28;100.00
57606;BME280;43430;48.204;11.556;2022-11-15T09:18:32;95575.03;;;7.33;100.00
57606;BME280;43430;48.204;11.556;2022-11-15T09:20:58;95577.19;;;7.43;100.00
57606;BME280;43430;48.204;11.556;2022-11-15T09:23:25;95573.53;;;7.50;100.00
57606;BME280;43430;48.204;11.556;2022-11-15T09:25:51;95567.53;;;7.68;100.00
57606;BME280;43430;48.204;11.556;2022-11-15T09:28:17;95559.34;;;7.83;100.00
57606;BME280;43430;48.204;11.556;2022-11-15T09:30:43;95549.75;;;7.95;100.00
57606;BME280;43430;48.204;11.556;2022-11-15T09:33:10;95550.44;;;8.09;100.00
57606;BME280;43430;48.204;11.556;2022-11-15T09:35:35;95548.25;;;8.24;100.00
57606;BME280;43430;48.204;11.556;2022-11-15T09:38:01;95549.00;;;8.31;100.00
57606;BME280;43430;48.204;11.556;2022-11-15T09:40:27;95544.81;;;8.49;100.00
57606;BME280;43430;48.204;11.556;2022-11-15T09:45:54;95528.94;;;8.37;100.00
57606;BME280;43430;48.204;11.556;2022-11-15T09:51:30;95523.78;;;8.49;100.00
57606;BME280;43430;48.204;11.556;2022-11-15T09:56:56;95511.09;;;8.64;100.00
57606;BME280;43430;48.204;11.556;2022-11-15T10:03:11;95507.91;;;8.74;100.00
57606;BME280;43430;48.204;11.556;2022-11-15T10:05:45;95504.91;;;8.89;100.00
57606;BME280;43430;48.204;11.556;2022-11-15T10:10:49;95493.56;;;9.07;100.00
57606;BME280;43430;48.204;11.556;2022-11-15T10:13:19;95491.16;;;9.05;100.00
57606;BME280;43430;48.204;11.556;2022-11-15T10:15:51;95479.97;;;9.21;100.00
57606;BME280;43430;48.204;11.556;2022-11-15T10:18:34;95476.34;;;9.22;100.00
57606;BME280;43430;48.204;11.556;2022-11-15T10:21:13;95471.44;;;9.26;100.00
57606;BME280;43430;48.204;11.556;2022-11-15T10:23:40;95474.75;;;9.33;100.00
57606;BME280;43430;48.204;11.556;2022-11-15T10:26:09;95470.75;;;9.42;100.00
57606;BME280;43430;48.204;11.556;2022-11-15T10:28:36;95465.06;;;9.57;100.00
57606;BME280;43430;48.204;11.556;2022-11-15T10:31:02;95456.38;;;9.57;100.00
57606;BME280;43430;48.204;11.556;2022-11-15T10:33:35;95448.03;;;9.71;100.00
57606;BME280;43430;48.204;11.556;2022-11-15T10:41:15;95445.16;;;9.73;100.00
57606;BME280;43430;48.204;11.556;2022-11-15T10:43:41;95441.59;;;9.79;100.00
57606;BME280;43430;48.204;11.556;2022-11-15T10:46:27;95431.75;;;9.86;100.00
57606;BME280;43430;48.204;11.556;2022-11-15T10:48:52;95433.94;;;9.89;100.00
57606;BME280;43430;48.204;11.556;2022-11-15T10:51:23;95428.53;;;9.96;100.00
57606;BME280;43430;48.204;11.556;2022-11-15T10:53:54;95439.88;;;9.96;100.00
57606;BME280;43430;48.204;11.556;2022-11-15T10:56:22;95420.97;;;9.99;100.00
57606;BME280;43430;48.204;11.556;2022-11-15T10:58:55;95420.28;;;10.16;100.00
57606;BME280;43430;48.204;11.556;2022-11-15T11:01:28;95412.94;;;10.30;100.00
57606;BME280;43430;48.204;11.556;2022-11-15T11:04:06;95405.00;;;10.41;100.00
57606;BME280;43430;48.204;11.556;2022-11-15T11:06:50;95392.00;;;10.52;100.00
57606;BME280;43430;48.204;11.556;2022-11-15T11:09:28;95392.19;;;10.62;100.00
57606;BME280;43430;48.204;11.556;2022-11-15T11:11:54;95387.25;;;10.65;100.00
57606;BME280;43430;48.204;11.556;2022-11-15T11:14:22;95377.69;;;10.76;100.00
57606;BME280;43430;48.204;11.556;2022-11-15T11:25:24;95369.31;;;10.96;100.00
57606;BME280;43430;48.204;11.556;2022-11-15T11:28:04;95361.50;;;11.01;100.00
57606;BME280;43430;48.204;11.556;2022-11-15T11:30:47;95346.00;;;11.05;100.00
57606;BME280;43430;48.204;11.556;2022-11-15T11:33:25;95354.13;;;11.03;100.00
57606;BME280;43430;48.204;11.556;2022-11-15T11:36:19;95349.66;;;11.04;100.00
57606;BME280;43430;48.204;11.556;2022-11-15T11:39:31;95350.06;;;11.12;100.00
57606;BME280;43430;48.204;11.556;2022-11-15T11:41:38;95346.63;;;11.12;100.00
57606;BME280;43430;48.204;11.556;2022-11-15T11:47:06;95341.69;;;11.15;100.00
57606;BME280;43430;48.204;11.556;2022-11-15T11:49:54;95335.75;;;11.25;100.00
57606;BME280;43430;48.204;11.556;2022-11-15T11:52:33;95327.16;;;11.35;100.00
57606;BME280;43430;48.204;11.556;2022-11-15T11:55:14;95328.84;;;11.24;100.00
57606;BME280;43430;48.204;11.556;2022-11-15T11:57:46;95320.88;;;11.19;100.00
57606;BME280;43430;48.204;11.556;2022-11-15T12:00:22;95315.09;;;11.39;100.00
57606;BME280;43430;48.204;11.556;2022-11-15T12:03:21;95310.38;;;11.41;100.00
57606;BME280;43430;48.204;11.556;2022-11-15T12:06:11;95312.22;;;11.40;100.00
57606;BME280;43430;48.204;11.556;2022-11-15T12:08:46;95304.28;;;11.40;100.00
57606;BME280;43430;48.204;11.556;2022-11-15T12:11:26;95303.06;;;11.48;100.00
57606;BME280;43430;48.204;11.556;2022-11-15T12:13:58;95305.22;;;11.51;100.00
57606;BME280;43430;48.204;11.556;2022-11-15T12:16:32;95294.94;;;11.50;100.00
57606;BME280;43430;48.204;11.556;2022-11-15T12:19:03;95302.34;;;11.53;100.00
57606;BME280;43430;48.204;11.556;2022-11-15T12:24:20;95300.75;;;11.52;100.00
57606;BME280;43430;48.204;11.556;2022-11-15T12:30:10;95289.78;;;11.60;100.00
57606;BME280;43430;48.204;11.556;2022-11-15T12:32:38;95290.31;;;11.62;100.00
57606;BME280;43430;48.204;11.556;2022-11-15T12:35:23;95288.66;;;11.56;100.00
57606;BME280;43430;48.204;11.556;2022-11-15T12:37:51;95278.09;;;11.56;100.00
57606;BME280;43430;48.204;11.556;2022-11-15T12:40:27;95274.84;;;11.71;100.00
57606;BME280;43430;48.204;11.556;2022-11-15T12:45:44;95276.19;;;11.73;100.00
57606;BME280;43430;48.204;11.556;2022-11-15T12:59:00;95275.34;;;11.68;100.00
57606;BME280;43430;48.204;11.556;2022-11-15T13:07:03;95269.97;;;12.01;100.00
57606;BME280;43430;48.204;11.556;2022-11-15T13:11:56;95270.56;;;12.08;100.00
57606;BME280;43430;48.204;11.556;2022-11-15T13:17:24;95258.59;;;12.28;100.00
57606;BME280;43430;48.204;11.556;2022-11-15T13:19:59;95256.44;;;12.25;100.00
57606;BME280;43430;48.204;11.556;2022-11-15T13:22:26;95259.59;;;12.22;100.00
57606;BME280;43430;48.204;11.556;2022-11-15T13:33:22;95257.56;;;12.29;100.00
57606;BME280;43430;48.204;11.556;2022-11-15T13:35:56;95250.53;;;12.40;100.00
57606;BME280;43430;48.204;11.556;2022-11-15T13:38:33;95252.06;;;12.35;100.00
57606;BME280;43430;48.204;11.556;2022-11-15T13:41:00;95256.59;;;12.40;100.00
57606;BME280;43430;48.204;11.556;2022-11-15T13:43:35;95251.81;;;12.37;100.00
57606;BME280;43430;48.204;11.556;2022-11-15T13:46:19;95253.41;;;12.38;100.00
57606;BME280;43430;48.204;11.556;2022-11-15T13:48:46;95252.00;;;12.30;100.00
57606;BME280;43430;48.204;11.556;2022-11-15T13:51:21;95257.56;;;12.29;100.00
57606;BME280;43430;48.204;11.556;2022-11-15T13:53:54;95257.47;;;12.19;100.00
57606;BME280;43430;48.204;11.556;2022-11-15T13:56:20;95243.13;;;12.15;100.00
57606;BME280;43430;48.204;11.556;2022-11-15T13:58:46;95254.50;;;12.15;100.00
57606;BME280;43430;48.204;11.556;2022-11-15T14:01:18;95244.94;;;12.09;100.00
57606;BME280;43430;48.204;11.556;2022-11-15T14:03:54;95241.19;;;12.05;100.00
57606;BME280;43430;48.204;11.556;2022-11-15T14:06:23;95252.75;;;11.99;100.00
57606;BME280;43430;48.204;11.556;2022-11-15T14:11:55;95251.09;;;11.93;100.00
57606;BME280;43430;48.204;11.556;2022-11-15T14:14:23;95259.31;;;11.96;100.00
57606;BME280;43430;48.204;11.556;2022-11-15T14:16:54;95255.41;;;11.99;100.00
57606;BME280;43430;48.204;11.556;2022-11-15T14:22:08;95249.84;;;12.00;100.00
57606;BME280;43430;48.204;11.556;2022-11-15T14:24:34;95249.31;;;11.98;100.00
57606;BME280;43430;48.204;11.556;2022-11-15T14:27:26;95252.53;;;11.83;100.00
57606;BME280;43430;48.204;11.556;2022-11-15T14:29:52;95256.03;;;11.84;100.00
57606;BME280;43430;48.204;11.556;2022-11-15T14:34:45;95255.31;;;11.72;100.00
57606;BME280;43430;48.204;11.556;2022-11-15T14:37:25;95257.03;;;11.61;100.00
57606;BME280;43430;48.204;11.556;2022-11-15T14:39:52;95259.47;;;11.46;100.00
57606;BME280;43430;48.204;11.556;2022-11-15T14:42:18;95269.97;;;11.40;100.00